sensor_id;sensor_type;location;lat;lon;timestamp;pressure;altitude;pressure_sealevel;temperature;humidity
18022;BME280;9136;48.822;7.966;2023-03-01T00:00:08;101100.72;;;-0.59;100.00
18022;BME280;9136;48.822;7.966;2023-03-01T00:02:56;101101.69;;;-0.55;100.00
18022;BME280;9136;48.822;7.966;2023-03-01T00:05:44;101077.97;;;-0.73;100.00
18022;BME280;9136;48.822;7.966;2023-03-01T00:08:34;101094.41;;;-0.70;100.00
18022;BME280;9136;48.822;7.966;2023-03-01T00:11:26;101117.13;;;-0.56;100.00
18022;BME280;9136;48.822;7.966;2023-03-01T00:14:15;101111.13;;;-0.55;100.00
18022;BME280;9136;48.822;7.966;2023-03-01T00:17:03;101098.94;;;-0.61;100.00
18022;BME280;9136;48.822;7.966;2023-03-01T00:19:51;101097.84;;;-0.69;100.00
18022;BME280;9136;48.822;7.966;2023-03-01T00:22:39;101092.78;;;-0.66;100.00
18022;BME280;9136;48.822;7.966;2023-03-01T00:25:26;101098.94;;;-0.61;100.00
18022;BME280;9136;48.822;7.966;2023-03-01T00:28:16;101093.75;;;-0.63;100.00
18022;BME280;9136;48.822;7.966;2023-03-01T00:31:04;101105.06;;;-0.57;100.00
18022;BME280;9136;48.822;7.966;2023-03-01T00:33:53;101087.63;;;-0.66;100.00
18022;BME280;9136;48.822;7.966;2023-03-01T00:36:43;101094.66;;;-0.61;100.00
18022;BME280;9136;48.822;7.966;2023-03-01T00:39:31;101085.13;;;-0.63;100.00
18022;BME280;9136;48.822;7.966;2023-03-01T00:42:19;101086.84;;;-0.64;100.00
18022;BME280;9136;48.822;7.966;2023-03-01T00:45:10;101092.69;;;-0.69;100.00
18022;BME280;9136;48.822;7.966;2023-03-01T00:47:59;101081.25;;;-0.79;100.00
18022;BME280;9136;48.822;7.966;2023-03-01T00:50:47;101092.63;;;-0.72;100.00
18022;BME280;9136;48.822;7.966;2023-03-01T00:53:35;101101.38;;;-0.67;100.00
18022;BME280;9136;48.822;7.966;2023-03-01T00:56:24;101078.53;;;-0.85;100.00
18022;BME280;9136;48.822;7.966;2023-03-01T00:59:11;101076.72;;;-0.88;100.00
18022;BME280;9136;48.822;7.966;2023-03-01T01:02:01;101096.84;;;-0.76;100.00
18022;BME280;9136;48.822;7.966;2023-03-01T01:04:49;101087.22;;;-0.81;100.00
18022;BME280;9136;48.822;7.966;2023-03-01T01:07:37;101097.75;;;-0.74;100.00
18022;BME280;9136;48.822;7.966;2023-03-01T01:10:25;101093.31;;;-0.78;100.00
18022;BME280;9136;48.822;7.966;2023-03-01T01:13:14;101066.13;;;-0.97;100.00
18022;BME280;9136;48.822;7.966;2023-03-01T01:16:02;101068.97;;;-0.88;100.00
18022;BME280;9136;48.822;7.966;2023-03-01T01:18:51;101037.88;;;-0.94;100.00
18022;BME280;9136;48.822;7.966;2023-03-01T01:21:40;101069.22;;;-0.78;100.00
18022;BME280;9136;48.822;7.966;2023-03-01T01:24:29;101067.19;;;-0.90;100.00
18022;BME280;9136;48.822;7.966;2023-03-01T01:27:17;101066.56;;;-0.81;100.00
18022;BME280;9136;48.822;7.966;2023-03-01T01:30:05;101074.44;;;-0.77;100.00
18022;BME280;9136;48.822;7.966;2023-03-01T01:32:53;101075.44;;;-0.72;100.00
18022;BME280;9136;48.822;7.966;2023-03-01T01:35:45;101057.88;;;-0.85;100.00
18022;BME280;9136;48.822;7.966;2023-03-01T01:38:33;101064.22;;;-0.74;100.00
18022;BME280;9136;48.822;7.966;2023-03-01T01:41:21;101050.06;;;-0.88;100.00
18022;BME280;9136;48.822;7.966;2023-03-01T01:44:12;101033.53;;;-0.96;100.00
18022;BME280;9136;48.822;7.966;2023-03-01T01:47:04;101050.88;;;-0.89;100.00
18022;BME280;9136;48.822;7.966;2023-03-01T01:49:54;101054.38;;;-0.87;100.00
18022;BME280;9136;48.822;7.966;2023-03-01T01:52:45;101043.16;;;-0.89;100.00
18022;BME280;9136;48.822;7.966;2023-03-01T01:55:37;101045.72;;;-0.89;100.00
18022;BME280;9136;48.822;7.966;2023-03-01T01:58:29;101043.69;;;-1.01;100.00
18022;BME280;9136;48.822;7.966;2023-03-01T02:01:17;101027.31;;;-1.03;100.00
18022;BME280;9136;48.822;7.966;2023-03-01T02:04:05;101040.50;;;-0.92;100.00
18022;BME280;9136;48.822;7.966;2023-03-01T02:06:59;101046.53;;;-0.92;100.00
18022;BME280;9136;48.822;7.966;2023-03-01T02:09:52;101059.38;;;-0.93;100.00
18022;BME280;9136;48.822;7.966;2023-03-01T02:12:40;101024.56;;;-1.09;100.00
18022;BME280;9136;48.822;7.966;2023-03-01T02:15:33;101035.06;;;-1.03;100.00
18022;BME280;9136;48.822;7.966;2023-03-01T02:18:22;101023.72;;;-1.08;100.00
18022;BME280;9136;48.822;7.966;2023-03-01T02:21:21;101007.94;;;-1.20;100.00
18022;BME280;9136;48.822;7.966;2023-03-01T02:24:21;101022.63;;;-1.16;100.00
18022;BME280;9136;48.822;7.966;2023-03-01T02:27:17;101021.03;;;-1.12;100.00
18022;BME280;9136;48.822;7.966;2023-03-01T02:30:12;101019.31;;;-1.12;100.00
18022;BME280;9136;48.822;7.966;2023-03-01T02:33:02;100998.19;;;-1.30;100.00
18022;BME280;9136;48.822;7.966;2023-03-01T02:35:51;101010.66;;;-1.16;100.00
18022;BME280;9136;48.822;7.966;2023-03-01T02:38:41;100985.50;;;-1.24;100.00
18022;BME280;9136;48.822;7.966;2023-03-01T02:41:32;101001.03;;;-1.21;100.00
18022;BME280;9136;48.822;7.966;2023-03-01T02:44:22;101002.94;;;-1.14;100.00
18022;BME280;9136;48.822;7.966;2023-03-01T02:47:11;100995.22;;;-1.14;100.00
18022;BME280;9136;48.822;7.966;2023-03-01T02:49:59;101008.22;;;-1.09;100.00
18022;BME280;9136;48.822;7.966;2023-03-01T02:52:54;100979.53;;;-1.22;100.00
18022;BME280;9136;48.822;7.966;2023-03-01T02:55:45;101004.66;;;-1.14;100.00
18022;BME280;9136;48.822;7.966;2023-03-01T02:58:33;100994.16;;;-1.21;100.00
18022;BME280;9136;48.822;7.966;2023-03-01T03:01:31;100995.03;;;-1.20;100.00
18022;BME280;9136;48.822;7.966;2023-03-01T03:04:25;100987.13;;;-1.26;100.00
18022;BME280;9136;48.822;7.966;2023-03-01T03:07:13;100973.19;;;-1.34;100.00
18022;BME280;9136;48.822;7.966;2023-03-01T03:10:01;100963.56;;;-1.40;100.00
18022;BME280;9136;48.822;7.966;2023-03-01T03:12:50;100970.28;;;-1.45;100.00
18022;BME280;9136;48.822;7.966;2023-03-01T03:15:39;100963.50;;;-1.43;100.00
18022;BME280;9136;48.822;7.966;2023-03-01T03:18:26;100957.63;;;-1.37;100.00
18022;BME280;9136;48.822;7.966;2023-03-01T03:21:16;100969.81;;;-1.32;100.00
18022;BME280;9136;48.822;7.966;2023-03-01T03:24:05;100959.28;;;-1.39;100.00
18022;BME280;9136;48.822;7.966;2023-03-01T03:26:53;100969.78;;;-1.33;100.00
18022;BME280;9136;48.822;7.966;2023-03-01T03:29:42;100970.44;;;-1.40;100.00
18022;BME280;9136;48.822;7.966;2023-03-01T03:32:30;100955.50;;;-1.52;100.00
18022;BME280;9136;48.822;7.966;2023-03-01T03:35:19;100977.09;;;-1.47;100.00
18022;BME280;9136;48.822;7.966;2023-03-01T03:38:11;100953.50;;;-1.62;100.00
18022;BME280;9136;48.822;7.966;2023-03-01T03:41:04;100951.09;;;-1.56;100.00
18022;BME280;9136;48.822;7.966;2023-03-01T03:43:53;100964.09;;;-1.52;100.00
18022;BME280;9136;48.822;7.966;2023-03-01T03:46:41;100963.38;;;-1.46;100.00
18022;BME280;9136;48.822;7.966;2023-03-01T03:49:29;100976.19;;;-1.49;100.00
18022;BME280;9136;48.822;7.966;2023-03-01T03:52:17;100944.06;;;-1.62;100.00
18022;BME280;9136;48.822;7.966;2023-03-01T03:55:09;100934.31;;;-1.74;100.00
18022;BME280;9136;48.822;7.966;2023-03-01T03:57:58;100958.72;;;-1.59;100.00
18022;BME280;9136;48.822;7.966;2023-03-01T04:00:51;100942.78;;;-1.76;100.00
18022;BME280;9136;48.822;7.966;2023-03-01T04:03:40;100951.69;;;-1.65;100.00
18022;BME280;9136;48.822;7.966;2023-03-01T04:06:32;100929.00;;;-1.78;100.00
18022;BME280;9136;48.822;7.966;2023-03-01T04:09:20;100924.69;;;-1.79;100.00
18022;BME280;9136;48.822;7.966;2023-03-01T04:12:09;100937.78;;;-1.71;100.00
18022;BME280;9136;48.822;7.966;2023-03-01T04:14:57;100928.25;;;-1.74;100.00
18022;BME280;9136;48.822;7.966;2023-03-01T04:17:46;100937.09;;;-1.64;100.00
18022;BME280;9136;48.822;7.966;2023-03-01T04:20:35;100941.47;;;-1.63;100.00
18022;BME280;9136;48.822;7.966;2023-03-01T04:23:23;100921.28;;;-1.78;100.00
18022;BME280;9136;48.822;7.966;2023-03-01T04:26:11;100926.47;;;-1.77;100.00
18022;BME280;9136;48.822;7.966;2023-03-01T04:29:01;100908.13;;;-1.87;100.00
18022;BME280;9136;48.822;7.966;2023-03-01T04:31:49;100919.50;;;-1.81;100.00
18022;BME280;9136;48.822;7.966;2023-03-01T04:34:37;100915.91;;;-1.86;100.00
18022;BME280;9136;48.822;7.966;2023-03-01T04:37:25;100911.50;;;-1.90;100.00
18022;BME280;9136;48.822;7.966;2023-03-01T04:40:13;100919.47;;;-1.82;100.00
18022;BME280;9136;48.822;7.966;2023-03-01T04:43:03;100920.16;;;-1.88;100.00
18022;BME280;9136;48.822;7.966;2023-03-01T04:45:53;100931.47;;;-1.83;100.00
18022;BME280;9136;48.822;7.966;2023-03-01T04:48:41;100913.25;;;-1.89;100.00
18022;BME280;9136;48.822;7.966;2023-03-01T04:51:29;100918.31;;;-1.92;100.00
18022;BME280;9136;48.822;7.966;2023-03-01T04:54:19;100915.63;;;-1.95;100.00
18022;BME280;9136;48.822;7.966;2023-03-01T04:57:07;100913.94;;;-1.94;100.00
18022;BME280;9136;48.822;7.966;2023-03-01T04:59:55;100923.47;;;-1.92;100.00
18022;BME280;9136;48.822;7.966;2023-03-01T05:02:46;100909.38;;;-2.03;100.00
18022;BME280;9136;48.822;7.966;2023-03-01T05:05:36;100917.25;;;-1.98;100.00
18022;BME280;9136;48.822;7.966;2023-03-01T05:08:24;100933.78;;;-1.92;100.00
18022;BME280;9136;48.822;7.966;2023-03-01T05:11:13;100904.09;;;-2.09;100.00
18022;BME280;9136;48.822;7.966;2023-03-01T05:14:01;100901.66;;;-2.03;100.00
18022;BME280;9136;48.822;7.966;2023-03-01T05:16:49;100928.56;;;-1.93;100.00
18022;BME280;9136;48.822;7.966;2023-03-01T05:19:38;100918.66;;;-2.10;100.00
18022;BME280;9136;48.822;7.966;2023-03-01T05:22:28;100926.53;;;-2.04;100.00
18022;BME280;9136;48.822;7.966;2023-03-01T05:25:17;100917.06;;;-2.05;100.00
18022;BME280;9136;48.822;7.966;2023-03-01T05:28:05;100925.84;;;-1.98;100.00
18022;BME280;9136;48.822;7.966;2023-03-01T05:30:54;100933.81;;;-1.90;100.00
18022;BME280;9136;48.822;7.966;2023-03-01T05:33:42;100926.06;;;-1.92;100.00
18022;BME280;9136;48.822;7.966;2023-03-01T05:36:31;100916.34;;;-2.00;100.00
18022;BME280;9136;48.822;7.966;2023-03-01T05:39:20;100915.81;;;-1.89;100.00
18022;BME280;9136;48.822;7.966;2023-03-01T05:42:10;100927.88;;;-1.88;100.00
18022;BME280;9136;48.822;7.966;2023-03-01T05:44:58;100906.94;;;-2.00;100.00
18022;BME280;9136;48.822;7.966;2023-03-01T05:47:47;100913.09;;;-1.93;100.00
18022;BME280;9136;48.822;7.966;2023-03-01T05:50:37;100903.47;;;-2.00;100.00
18022;BME280;9136;48.822;7.966;2023-03-01T05:53:27;100898.22;;;-2.04;100.00
18022;BME280;9136;48.822;7.966;2023-03-01T05:56:15;100923.28;;;-1.98;100.00
18022;BME280;9136;48.822;7.966;2023-03-01T05:59:04;100916.44;;;-1.97;100.00
18022;BME280;9136;48.822;7.966;2023-03-01T06:01:52;100917.34;;;-1.95;100.00
18022;BME280;9136;48.822;7.966;2023-03-01T06:04:40;100925.94;;;-1.95;100.00
18022;BME280;9136;48.822;7.966;2023-03-01T06:07:28;100917.19;;;-2.02;100.00
18022;BME280;9136;48.822;7.966;2023-03-01T06:10:19;100906.78;;;-2.05;100.00
18022;BME280;9136;48.822;7.966;2023-03-01T06:13:07;100910.81;;;-2.13;100.00
18022;BME280;9136;48.822;7.966;2023-03-01T06:15:55;100907.56;;;-2.07;100.00
18022;BME280;9136;48.822;7.966;2023-03-01T06:18:43;100914.66;;;-2.00;100.00
18022;BME280;9136;48.822;7.966;2023-03-01T06:21:31;100932.91;;;-1.92;100.00
18022;BME280;9136;48.822;7.966;2023-03-01T06:24:18;100913.81;;;-1.99;100.00
18022;BME280;9136;48.822;7.966;2023-03-01T06:27:08;100924.13;;;-1.99;100.00
18022;BME280;9136;48.822;7.966;2023-03-01T06:29:56;100915.53;;;-1.99;100.00
18022;BME280;9136;48.822;7.966;2023-03-01T06:32:44;100930.41;;;-1.89;100.00
18022;BME280;9136;48.822;7.966;2023-03-01T06:35:32;100932.06;;;-1.91;100.00
18022;BME280;9136;48.822;7.966;2023-03-01T06:38:20;100906.00;;;-2.02;100.00
18022;BME280;9136;48.822;7.966;2023-03-01T06:41:10;100895.53;;;-2.08;100.00
18022;BME280;9136;48.822;7.966;2023-03-01T06:43:59;100913.19;;;-1.92;100.00
18022;BME280;9136;48.822;7.966;2023-03-01T06:46:49;100922.78;;;-1.85;100.00
18022;BME280;9136;48.822;7.966;2023-03-01T06:49:37;100914.25;;;-1.84;100.00
18022;BME280;9136;48.822;7.966;2023-03-01T06:52:24;100909.28;;;-1.78;100.00
18022;BME280;9136;48.822;7.966;2023-03-01T06:55:13;100896.31;;;-1.81;100.00
18022;BME280;9136;48.822;7.966;2023-03-01T06:58:01;100904.44;;;-1.65;100.00
18022;BME280;9136;48.822;7.966;2023-03-01T07:00:51;100880.28;;;-1.70;100.00
18022;BME280;9136;48.822;7.966;2023-03-01T07:03:39;100895.34;;;-1.54;100.00
18022;BME280;9136;48.822;7.966;2023-03-01T07:06:26;100900.81;;;-1.42;100.00
18022;BME280;9136;48.822;7.966;2023-03-01T07:09:14;100910.59;;;-1.29;100.00
18022;BME280;9136;48.822;7.966;2023-03-01T07:12:06;100890.56;;;-1.39;100.00
18022;BME280;9136;48.822;7.966;2023-03-01T07:14:54;100903.03;;;-1.23;100.00
18022;BME280;9136;48.822;7.966;2023-03-01T07:17:43;100896.41;;;-1.13;100.00
18022;BME280;9136;48.822;7.966;2023-03-01T07:20:34;100900.00;;;-1.06;100.00
18022;BME280;9136;48.822;7.966;2023-03-01T07:23:22;100880.97;;;-1.11;100.00
18022;BME280;9136;48.822;7.966;2023-03-01T07:26:10;100879.38;;;-1.06;100.00
18022;BME280;9136;48.822;7.966;2023-03-01T07:28:58;100877.72;;;-1.04;100.00
18022;BME280;9136;48.822;7.966;2023-03-01T07:31:46;100879.59;;;-0.97;100.00
18022;BME280;9136;48.822;7.966;2023-03-01T07:34:36;100885.59;;;-0.98;100.00
18022;BME280;9136;48.822;7.966;2023-03-01T07:37:24;100872.97;;;-0.88;100.00
18022;BME280;9136;48.822;7.966;2023-03-01T07:40:12;100862.47;;;-0.95;100.00
18022;BME280;9136;48.822;7.966;2023-03-01T07:43:00;100890.38;;;-0.79;100.00
18022;BME280;9136;48.822;7.966;2023-03-01T07:45:48;100871.22;;;-0.89;100.00
18022;BME280;9136;48.822;7.966;2023-03-01T07:48:36;100872.31;;;-0.79;100.00
18022;BME280;9136;48.822;7.966;2023-03-01T07:51:26;100866.47;;;-0.72;100.00
18022;BME280;9136;48.822;7.966;2023-03-01T07:54:13;100877.03;;;-0.61;100.00
18022;BME280;9136;48.822;7.966;2023-03-01T07:57:01;100876.50;;;-0.48;100.00
18022;BME280;9136;48.822;7.966;2023-03-01T07:59:49;100857.41;;;-0.54;100.00
18022;BME280;9136;48.822;7.966;2023-03-01T08:02:37;100880.97;;;-0.39;100.00
18022;BME280;9136;48.822;7.966;2023-03-01T08:05:26;100878.44;;;-0.38;100.00
18022;BME280;9136;48.822;7.966;2023-03-01T08:08:16;100858.59;;;-0.39;100.00
18022;BME280;9136;48.822;7.966;2023-03-01T08:11:06;100875.50;;;-0.14;100.00
18022;BME280;9136;48.822;7.966;2023-03-01T08:13:54;100860.91;;;-0.12;100.00
18022;BME280;9136;48.822;7.966;2023-03-01T08:16:42;100887.94;;;0.06;100.00
18022;BME280;9136;48.822;7.966;2023-03-01T08:19:30;100843.97;;;0.01;100.00
18022;BME280;9136;48.822;7.966;2023-03-01T08:22:19;100868.53;;;0.24;100.00
18022;BME280;9136;48.822;7.966;2023-03-01T08:25:09;100859.84;;;0.19;100.00
18022;BME280;9136;48.822;7.966;2023-03-01T08:27:57;100881.75;;;0.40;100.00
18022;BME280;9136;48.822;7.966;2023-03-01T08:30:45;100859.19;;;0.31;100.00
18022;BME280;9136;48.822;7.966;2023-03-01T08:33:33;100863.69;;;0.41;100.00
18022;BME280;9136;48.822;7.966;2023-03-01T08:36:21;100858.41;;;0.37;100.00
18022;BME280;9136;48.822;7.966;2023-03-01T08:39:12;100848.28;;;0.47;100.00
18022;BME280;9136;48.822;7.966;2023-03-01T08:42:02;100853.75;;;0.64;100.00
18022;BME280;9136;48.822;7.966;2023-03-01T08:44:49;100825.34;;;0.67;100.00
18022;BME280;9136;48.822;7.966;2023-03-01T08:47:37;100848.00;;;0.80;100.00
18022;BME280;9136;48.822;7.966;2023-03-01T08:50:25;100835.09;;;0.80;100.00
18022;BME280;9136;48.822;7.966;2023-03-01T08:53:13;100844.78;;;0.95;100.00
18022;BME280;9136;48.822;7.966;2023-03-01T08:56:01;100843.31;;;1.09;100.00
18022;BME280;9136;48.822;7.966;2023-03-01T08:58:51;100836.56;;;1.19;100.00
18022;BME280;9136;48.822;7.966;2023-03-01T09:01:39;100831.50;;;1.27;100.00
18022;BME280;9136;48.822;7.966;2023-03-01T09:04:29;100828.94;;;1.30;100.00
18022;BME280;9136;48.822;7.966;2023-03-01T09:07:17;100834.19;;;1.34;100.00
18022;BME280;9136;48.822;7.966;2023-03-01T09:10:06;100828.25;;;1.41;100.00
18022;BME280;9136;48.822;7.966;2023-03-01T09:12:54;100818.88;;;1.50;100.00
18022;BME280;9136;48.822;7.966;2023-03-01T09:15:43;100793.75;;;1.44;100.00
18022;BME280;9136;48.822;7.966;2023-03-01T09:18:32;100813.81;;;1.59;100.00
18022;BME280;9136;48.822;7.966;2023-03-01T09:21:22;100806.06;;;1.60;100.00
18022;BME280;9136;48.822;7.966;2023-03-01T09:24:13;100809.88;;;1.87;100.00
18022;BME280;9136;48.822;7.966;2023-03-01T09:27:01;100815.25;;;2.05;100.00
18022;BME280;9136;48.822;7.966;2023-03-01T09:29:49;100814.56;;;2.21;100.00
18022;BME280;9136;48.822;7.966;2023-03-01T09:32:38;100809.47;;;2.29;100.00
18022;BME280;9136;48.822;7.966;2023-03-01T09:35:28;100803.38;;;2.24;100.00
18022;BME280;9136;48.822;7.966;2023-03-01T09:38:16;100808.56;;;2.25;100.00
18022;BME280;9136;48.822;7.966;2023-03-01T09:41:09;100817.44;;;2.50;100.00
18022;BME280;9136;48.822;7.966;2023-03-01T09:44:00;100796.56;;;2.32;100.00
18022;BME280;9136;48.822;7.966;2023-03-01T09:46:51;100791.19;;;2.15;100.00
18022;BME280;9136;48.822;7.966;2023-03-01T09:49:41;100812.03;;;2.27;100.00
18022;BME280;9136;48.822;7.966;2023-03-01T09:52:39;100803.59;;;2.47;100.00
18022;BME280;9136;48.822;7.966;2023-03-01T09:55:31;100796.75;;;2.55;100.00
18022;BME280;9136;48.822;7.966;2023-03-01T09:58:48;100797.69;;;2.62;98.38
18022;BME280;9136;48.822;7.966;2023-03-01T10:01:44;100789.22;;;2.81;99.43
18022;BME280;9136;48.822;7.966;2023-03-01T10:04:45;100778.78;;;2.75;95.82
18022;BME280;9136;48.822;7.966;2023-03-01T10:07:40;100778.00;;;2.88;92.58
18022;BME280;9136;48.822;7.966;2023-03-01T10:10:34;100778.06;;;2.94;93.31
18022;BME280;9136;48.822;7.966;2023-03-01T10:13:27;100769.47;;;3.04;91.22
18022;BME280;9136;48.822;7.966;2023-03-01T10:16:21;100778.25;;;3.20;92.90
18022;BME280;9136;48.822;7.966;2023-03-01T10:19:14;100783.50;;;3.32;90.09
18022;BME280;9136;48.822;7.966;2023-03-01T10:22:17;100769.69;;;3.41;89.72
18022;BME280;9136;48.822;7.966;2023-03-01T10:25:12;100748.94;;;3.47;85.95
18022;BME280;9136;48.822;7.966;2023-03-01T10:28:02;100757.63;;;3.57;88.62
18022;BME280;9136;48.822;7.966;2023-03-01T10:30:54;100742.94;;;3.62;79.44
18022;BME280;9136;48.822;7.966;2023-03-01T10:33:42;100743.06;;;3.89;85.38
18022;BME280;9136;48.822;7.966;2023-03-01T10:36:39;100745.69;;;4.14;84.05
18022;BME280;9136;48.822;7.966;2023-03-01T10:39:29;100732.72;;;4.34;81.64
18022;BME280;9136;48.822;7.966;2023-03-01T10:42:22;100738.81;;;4.58;75.87
18022;BME280;9136;48.822;7.966;2023-03-01T10:45:23;100726.66;;;4.67;74.71
18022;BME280;9136;48.822;7.966;2023-03-01T10:48:15;100745.75;;;4.93;79.62
18022;BME280;9136;48.822;7.966;2023-03-01T10:51:06;100729.19;;;5.15;72.94
18022;BME280;9136;48.822;7.966;2023-03-01T10:53:54;100716.13;;;5.34;64.98
18022;BME280;9136;48.822;7.966;2023-03-01T10:57:02;100722.59;;;6.29;61.10
18022;BME280;9136;48.822;7.966;2023-03-01T11:00:03;100722.09;;;8.27;55.25
18022;BME280;9136;48.822;7.966;2023-03-01T11:03:09;100712.22;;;9.43;49.66
18022;BME280;9136;48.822;7.966;2023-03-01T11:06:01;100714.59;;;10.72;46.73
18022;BME280;9136;48.822;7.966;2023-03-01T11:08:49;100701.34;;;10.02;45.97
18022;BME280;9136;48.822;7.966;2023-03-01T11:11:38;100697.56;;;10.15;45.45
18022;BME280;9136;48.822;7.966;2023-03-01T11:14:30;100705.78;;;10.39;45.19
18022;BME280;9136;48.822;7.966;2023-03-01T11:17:23;100699.59;;;10.75;43.03
18022;BME280;9136;48.822;7.966;2023-03-01T11:20:20;100708.97;;;10.14;44.32
18022;BME280;9136;48.822;7.966;2023-03-01T11:23:14;100685.25;;;11.82;42.86
18022;BME280;9136;48.822;7.966;2023-03-01T11:26:05;100690.66;;;11.75;42.07
18022;BME280;9136;48.822;7.966;2023-03-01T11:28:56;100685.66;;;11.97;41.25
18022;BME280;9136;48.822;7.966;2023-03-01T11:31:48;100661.72;;;11.46;41.92
18022;BME280;9136;48.822;7.966;2023-03-01T11:34:40;100670.63;;;11.11;41.61
18022;BME280;9136;48.822;7.966;2023-03-01T11:37:34;100660.47;;;11.58;41.96
18022;BME280;9136;48.822;7.966;2023-03-01T11:40:26;100655.84;;;12.50;40.11
18022;BME280;9136;48.822;7.966;2023-03-01T11:43:22;100651.88;;;12.10;40.25
18022;BME280;9136;48.822;7.966;2023-03-01T11:46:51;100656.22;;;12.39;39.58
18022;BME280;9136;48.822;7.966;2023-03-01T11:50:16;100646.31;;;13.45;38.72
18022;BME280;9136;48.822;7.966;2023-03-01T11:53:23;100640.06;;;13.25;37.86
18022;BME280;9136;48.822;7.966;2023-03-01T11:56:24;100638.34;;;13.24;38.50
18022;BME280;9136;48.822;7.966;2023-03-01T11:59:47;100636.06;;;12.63;38.31
18022;BME280;9136;48.822;7.966;2023-03-01T12:09:33;100613.59;;;13.26;36.69
18022;BME280;9136;48.822;7.966;2023-03-01T12:12:30;100613.41;;;13.54;36.43
18022;BME280;9136;48.822;7.966;2023-03-01T12:21:59;100597.44;;;13.35;37.38
18022;BME280;9136;48.822;7.966;2023-03-01T12:25:19;100597.47;;;14.01;35.92
18022;BME280;9136;48.822;7.966;2023-03-01T12:28:28;100606.81;;;14.10;36.07
18022;BME280;9136;48.822;7.966;2023-03-01T12:31:46;100602.34;;;13.90;36.23
18022;BME280;9136;48.822;7.966;2023-03-01T12:34:54;100593.72;;;13.85;36.95
18022;BME280;9136;48.822;7.966;2023-03-01T12:37:54;100586.72;;;12.42;39.05
18022;BME280;9136;48.822;7.966;2023-03-01T12:41:36;100581.19;;;13.68;36.01
18022;BME280;9136;48.822;7.966;2023-03-01T12:44:42;100573.28;;;13.68;36.85
18022;BME280;9136;48.822;7.966;2023-03-01T12:47:49;100578.19;;;13.55;35.56
18022;BME280;9136;48.822;7.966;2023-03-01T12:50:41;100571.50;;;13.90;35.63
18022;BME280;9136;48.822;7.966;2023-03-01T12:53:35;100550.91;;;14.61;34.53
18022;BME280;9136;48.822;7.966;2023-03-01T12:56:25;100568.19;;;14.88;34.11
18022;BME280;9136;48.822;7.966;2023-03-01T12:59:19;100553.97;;;14.10;34.32
18022;BME280;9136;48.822;7.966;2023-03-01T13:02:15;100560.50;;;13.10;36.80
18022;BME280;9136;48.822;7.966;2023-03-01T13:05:19;100549.22;;;12.83;36.74
18022;BME280;9136;48.822;7.966;2023-03-01T13:08:16;100556.63;;;13.88;36.03
18022;BME280;9136;48.822;7.966;2023-03-01T13:11:16;100536.28;;;14.32;35.33
18022;BME280;9136;48.822;7.966;2023-03-01T13:17:44;100547.50;;;13.53;36.77
18022;BME280;9136;48.822;7.966;2023-03-01T13:20:46;100545.06;;;14.32;35.29
18022;BME280;9136;48.822;7.966;2023-03-01T13:23:36;100538.66;;;13.54;36.52
18022;BME280;9136;48.822;7.966;2023-03-01T13:26:26;100534.16;;;12.39;37.23
18022;BME280;9136;48.822;7.966;2023-03-01T13:29:26;100532.16;;;11.94;37.66
18022;BME280;9136;48.822;7.966;2023-03-01T13:32:21;100521.47;;;11.16;40.40
18022;BME280;9136;48.822;7.966;2023-03-01T13:38:47;100502.94;;;11.75;39.91
18022;BME280;9136;48.822;7.966;2023-03-01T13:41:53;100511.97;;;10.82;41.16
18022;BME280;9136;48.822;7.966;2023-03-01T13:44:43;100503.31;;;10.48;42.87
18022;BME280;9136;48.822;7.966;2023-03-01T13:47:32;100492.69;;;10.18;43.75
18022;BME280;9136;48.822;7.966;2023-03-01T13:50:24;100510.22;;;9.48;44.41
18022;BME280;9136;48.822;7.966;2023-03-01T13:53:17;100513.50;;;9.19;45.29
18022;BME280;9136;48.822;7.966;2023-03-01T13:56:08;100518.50;;;9.30;45.92
18022;BME280;9136;48.822;7.966;2023-03-01T13:59:02;100494.34;;;9.17;45.44
18022;BME280;9136;48.822;7.966;2023-03-01T14:01:54;100489.09;;;9.17;46.47
18022;BME280;9136;48.822;7.966;2023-03-01T14:04:42;100480.34;;;9.16;47.79
18022;BME280;9136;48.822;7.966;2023-03-01T14:07:29;100498.66;;;9.20;46.94
18022;BME280;9136;48.822;7.966;2023-03-01T14:10:17;100502.66;;;8.96;47.32
18022;BME280;9136;48.822;7.966;2023-03-01T14:13:17;100501.59;;;9.04;45.92
18022;BME280;9136;48.822;7.966;2023-03-01T14:16:22;100483.47;;;8.53;46.60
18022;BME280;9136;48.822;7.966;2023-03-01T14:19:16;100490.28;;;8.62;47.88
18022;BME280;9136;48.822;7.966;2023-03-01T14:22:20;100486.19;;;8.47;47.88
18022;BME280;9136;48.822;7.966;2023-03-01T14:25:25;100498.03;;;8.20;48.76
18022;BME280;9136;48.822;7.966;2023-03-01T14:28:16;100490.72;;;8.39;49.66
18022;BME280;9136;48.822;7.966;2023-03-01T14:31:31;100497.38;;;8.55;48.81
18022;BME280;9136;48.822;7.966;2023-03-01T14:34:21;100486.44;;;8.35;48.95
18022;BME280;9136;48.822;7.966;2023-03-01T14:37:10;100482.94;;;8.36;49.82
18022;BME280;9136;48.822;7.966;2023-03-01T14:40:00;100488.25;;;8.28;48.10
18022;BME280;9136;48.822;7.966;2023-03-01T14:42:48;100485.81;;;8.21;49.54
18022;BME280;9136;48.822;7.966;2023-03-01T14:45:36;100481.41;;;8.23;50.08
18022;BME280;9136;48.822;7.966;2023-03-01T14:48:27;100463.50;;;8.01;48.82
18022;BME280;9136;48.822;7.966;2023-03-01T14:51:15;100471.03;;;8.17;49.72
18022;BME280;9136;48.822;7.966;2023-03-01T14:54:10;100473.03;;;8.04;48.66
18022;BME280;9136;48.822;7.966;2023-03-01T14:57:12;100480.66;;;8.16;50.14
18022;BME280;9136;48.822;7.966;2023-03-01T15:00:03;100490.38;;;8.10;49.47
18022;BME280;9136;48.822;7.966;2023-03-01T15:02:55;100472.41;;;7.91;49.92
18022;BME280;9136;48.822;7.966;2023-03-01T15:05:45;100492.31;;;7.98;50.89
18022;BME280;9136;48.822;7.966;2023-03-01T15:08:34;100495.81;;;7.97;50.91
18022;BME280;9136;48.822;7.966;2023-03-01T15:11:25;100501.66;;;8.13;49.49
18022;BME280;9136;48.822;7.966;2023-03-01T15:14:45;100504.28;;;8.13;49.36
18022;BME280;9136;48.822;7.966;2023-03-01T15:17:36;100497.97;;;8.23;50.56
18022;BME280;9136;48.822;7.966;2023-03-01T15:20:26;100503.56;;;8.03;49.72
18022;BME280;9136;48.822;7.966;2023-03-01T15:23:21;100523.78;;;7.95;50.37
18022;BME280;9136;48.822;7.966;2023-03-01T15:26:25;100514.09;;;7.99;49.79